createdAt,value
2018-11-10T00:01:41.413Z,98967.70
2018-11-10T00:04:27.686Z,98967.55
2018-11-10T00:06:56.735Z,98971.47
2018-11-10T00:09:25.754Z,98973.16
2018-11-10T00:11:56.130Z,98971.63
2018-11-10T00:14:25.233Z,98969.80
2018-11-10T00:16:54.186Z,98973.72
2018-11-10T00:19:23.174Z,98975.40
2018-11-10T00:21:52.207Z,98978.28
2018-11-10T00:24:21.200Z,98977.25
2018-11-10T00:26:50.225Z,98978.42
2018-11-10T00:29:19.469Z,98982.50
2018-11-10T00:31:48.514Z,98975.70
2018-11-10T00:34:17.579Z,98981.95
2018-11-10T00:36:46.603Z,98990.44
2018-11-10T00:39:15.670Z,98987.48
2018-11-10T00:41:44.762Z,98984.28
2018-11-10T00:44:13.783Z,98988.98
2018-11-10T00:46:42.817Z,98991.47
2018-11-10T00:49:11.840Z,98987.39
2018-11-10T00:51:40.998Z,98994.73
2018-11-10T00:54:09.971Z,98992.19
2018-11-10T00:56:39.006Z,98993.22
2018-11-10T00:59:08.785Z,98994.28
2018-11-10T01:01:37.773Z,98995.32
2018-11-10T01:04:07.203Z,99002.02
2018-11-10T01:06:36.229Z,99005.48
2018-11-10T01:09:06.600Z,99006.52
2018-11-10T01:11:35.658Z,99013.88
2018-11-10T01:14:04.855Z,99006.59
2018-11-10T01:16:33.869Z,99006.10
2018-11-10T01:19:02.942Z,99013.88
2018-11-10T01:21:31.995Z,99009.14
2018-11-10T01:24:01.040Z,99016.88
2018-11-10T01:26:30.012Z,99021.70
2018-11-10T01:28:59.097Z,99020.47
2018-11-10T01:31:28.165Z,99021.66
2018-11-10T01:33:57.188Z,99018.55
2018-11-10T01:36:26.176Z,99025.34
2018-11-10T01:38:55.287Z,99023.00
2018-11-10T01:41:24.287Z,99029.86
2018-11-10T01:43:53.343Z,99031.55
2018-11-10T01:46:22.504Z,99044.64
2018-11-10T01:48:51.496Z,99040.34
2018-11-10T01:51:20.520Z,99043.92
2018-11-10T01:53:49.583Z,99047.36
2018-11-10T01:56:18.580Z,99053.55
2018-11-10T01:58:48.287Z,99048.02
2018-11-10T02:01:17.304Z,99051.78
2018-11-10T02:03:46.369Z,99051.23
2018-11-10T02:06:15.538Z,99051.98
2018-11-10T02:08:44.803Z,99050.84
2018-11-10T02:11:14.096Z,99050.53
2018-11-10T02:13:43.173Z,99056.22
2018-11-10T02:16:12.261Z,99053.73
2018-11-10T02:18:41.392Z,99050.78
2018-11-10T02:21:10.594Z,99049.88
2018-11-10T02:23:39.763Z,99056.68
2018-11-10T02:26:08.882Z,99058.04
2018-11-10T02:28:38.182Z,99056.13
2018-11-10T02:31:07.371Z,99055.58
2018-11-10T02:33:36.371Z,99055.81
2018-11-10T02:36:05.656Z,99060.15
2018-11-10T02:38:34.808Z,99064.94
2018-11-10T02:41:03.825Z,99058.86
2018-11-10T02:43:32.830Z,99060.16
2018-11-10T02:46:02.073Z,99064.17
2018-11-10T02:48:32.088Z,99060.27
2018-11-10T02:51:01.074Z,99060.43
2018-11-10T02:53:30.213Z,99059.69
2018-11-10T02:55:59.352Z,99055.21
2018-11-10T02:58:28.360Z,99053.42
2018-11-10T03:00:57.501Z,99053.58
2018-11-10T03:03:26.586Z,99063.56
2018-11-10T03:05:55.827Z,99063.45
2018-11-10T03:08:24.848Z,99076.07
2018-11-10T03:10:53.856Z,99076.22
2018-11-10T03:13:23.327Z,99075.23
2018-11-10T03:15:52.413Z,99076.42
2018-11-10T03:18:21.444Z,99079.55
2018-11-10T03:20:50.701Z,99075.30
2018-11-10T03:23:19.826Z,99083.83
2018-11-10T03:25:48.862Z,99083.88
2018-11-10T03:28:17.829Z,99082.03
2018-11-10T03:30:47.200Z,99087.55
2018-11-10T03:33:16.184Z,99091.94
2018-11-10T03:35:45.860Z,99096.08
2018-11-10T03:38:15.131Z,99100.14
2018-11-10T03:40:44.359Z,99101.02
2018-11-10T03:43:13.349Z,99112.42
2018-11-10T03:45:42.330Z,99111.96
2018-11-10T03:48:11.725Z,99120.48
2018-11-10T03:50:40.708Z,99109.13
2018-11-10T03:53:09.657Z,99101.28
2018-11-10T03:55:38.826Z,99105.91
2018-11-10T03:58:08.001Z,99106.14
2018-11-10T04:00:37.017Z,99110.48
2018-11-10T04:03:06.127Z,99114.55
2018-11-10T04:05:35.122Z,99117.59
2018-11-10T04:08:04.196Z,99110.84
2018-11-10T04:10:33.221Z,99114.92
2018-11-10T04:13:02.222Z,99114.92
2018-11-10T04:15:31.315Z,99117.41
2018-11-10T04:18:00.305Z,99120.35
2018-11-10T04:20:29.330Z,99121.71
2018-11-10T04:22:58.321Z,99115.47
2018-11-10T04:25:27.344Z,99113.33
2018-11-10T04:27:56.310Z,99110.53
2018-11-10T04:30:25.335Z,99115.91
2018-11-10T04:32:54.354Z,99113.42
2018-11-10T04:35:23.339Z,99114.47
2018-11-10T04:37:52.339Z,99115.45
2018-11-10T04:40:21.345Z,99110.84
2018-11-10T04:42:50.416Z,99108.06
2018-11-10T04:45:19.493Z,99118.62
2018-11-10T04:47:48.503Z,99116.13
2018-11-10T04:50:17.531Z,99126.63
2018-11-10T04:52:46.573Z,99120.64
2018-11-10T04:55:15.522Z,99132.06
2018-11-10T04:57:44.512Z,99132.92
2018-11-10T05:00:15.068Z,99132.92
2018-11-10T05:02:45.191Z,99141.31
2018-11-10T05:05:14.314Z,99138.86
2018-11-10T05:07:43.297Z,99140.03
2018-11-10T05:10:12.501Z,99137.77
2018-11-10T05:12:41.715Z,99146.52
2018-11-10T05:15:12.254Z,99149.00
2018-11-10T05:17:41.466Z,99147.78
2018-11-10T05:20:11.509Z,99148.14
2018-11-10T05:22:40.562Z,99152.27
2018-11-10T05:25:11.112Z,99152.34
2018-11-10T05:27:40.377Z,99148.82
2018-11-10T05:30:09.993Z,99146.75
2018-11-10T05:32:39.084Z,99150.95
2018-11-10T05:35:08.804Z,99145.26
2018-11-10T05:37:38.227Z,99143.67
2018-11-10T05:40:08.840Z,99140.19
2018-11-10T05:42:37.969Z,99131.31
2018-11-10T05:45:07.716Z,99130.81
2018-11-10T05:47:36.723Z,99127.32
2018-11-10T05:50:06.491Z,99129.77
2018-11-10T05:52:35.457Z,99118.73
2018-11-10T05:55:04.553Z,99116.52
2018-11-10T05:57:33.532Z,99122.17
2018-11-10T06:00:02.541Z,99124.03
2018-11-10T06:02:31.656Z,99115.66
2018-11-10T06:05:00.670Z,99113.80
2018-11-10T06:07:29.764Z,99115.20
2018-11-10T06:09:58.871Z,99118.55
2018-11-10T06:12:28.681Z,99117.50
2018-11-10T06:14:57.691Z,99115.28
2018-11-10T06:17:26.661Z,99119.36
2018-11-10T06:19:55.678Z,99121.30
2018-11-10T06:22:24.687Z,99124.91
2018-11-10T06:24:53.653Z,99124.64
2018-11-10T06:27:22.629Z,99129.84
2018-11-10T06:29:51.687Z,99123.37
2018-11-10T06:32:20.772Z,99130.44
2018-11-10T06:34:49.810Z,99133.15
2018-11-10T06:37:18.832Z,99135.58
2018-11-10T06:39:47.902Z,99134.69
2018-11-10T06:42:16.897Z,99137.36
2018-11-10T06:44:45.883Z,99138.09
2018-11-10T06:47:14.905Z,99134.52
2018-11-10T06:49:43.932Z,99135.64
2018-11-10T06:52:13.708Z,99138.28
2018-11-10T06:54:42.689Z,99129.72
2018-11-10T06:57:11.738Z,99131.77
2018-11-10T06:59:40.808Z,99130.59
2018-11-10T07:02:09.908Z,99126.63
2018-11-10T07:04:38.932Z,99124.40
2018-11-10T07:07:08.047Z,99120.54
2018-11-10T07:09:37.221Z,99122.34
2018-11-10T07:12:06.615Z,99118.77
2018-11-10T07:14:35.637Z,99112.65
2018-11-10T07:17:04.740Z,99110.03
2018-11-10T07:19:33.744Z,99110.38
2018-11-10T07:22:02.940Z,99103.77
2018-11-10T07:24:31.969Z,99092.03
2018-11-10T07:27:00.972Z,99097.41
2018-11-10T07:29:29.991Z,99098.69
2018-11-10T07:31:59.034Z,99111.90
2018-11-10T07:34:28.022Z,99112.66
2018-11-10T07:36:56.996Z,99114.97
2018-11-10T07:39:26.040Z,99111.33
2018-11-10T07:41:55.223Z,99118.34
2018-11-10T07:44:24.236Z,99114.85
2018-11-10T07:46:53.344Z,99123.23
2018-11-10T07:49:22.413Z,99120.14
2018-11-10T07:51:51.394Z,99123.36
2018-11-10T07:54:20.476Z,99119.73
2018-11-10T07:56:49.522Z,99115.98
2018-11-10T07:59:18.557Z,99123.53
2018-11-10T08:01:47.557Z,99130.00
2018-11-10T08:04:16.740Z,99116.32
2018-11-10T08:06:45.769Z,99123.87
2018-11-10T08:09:14.764Z,99128.67
2018-11-10T08:11:43.866Z,99129.22
2018-11-10T08:14:12.916Z,99135.41
2018-11-10T08:16:42.039Z,99146.02
2018-11-10T08:19:11.106Z,99162.34
2018-11-10T08:21:40.122Z,99170.50
2018-11-10T08:24:09.237Z,99183.77
2018-11-10T08:26:38.310Z,99187.36
2018-11-10T08:29:07.347Z,99193.75
2018-11-10T08:31:36.426Z,99184.38
2018-11-10T08:34:05.734Z,99182.03
2018-11-10T08:36:34.837Z,99166.09
2018-11-10T08:39:04.406Z,99163.52
2018-11-10T08:41:33.471Z,99178.23
2018-11-10T08:44:02.569Z,99185.44
2018-11-10T08:46:31.610Z,99180.27
2018-11-10T08:49:00.666Z,99189.20
2018-11-10T08:51:30.118Z,99192.00
2018-11-10T08:53:59.136Z,99182.80
2018-11-10T08:56:28.729Z,99179.33
2018-11-10T08:58:58.452Z,99175.62
2018-11-10T09:01:28.177Z,99172.17
2018-11-10T09:03:57.297Z,99168.96
2018-11-10T09:06:26.328Z,99164.39
2018-11-10T09:08:55.340Z,99150.31
2018-11-10T09:11:24.438Z,99140.57
2018-11-10T09:13:53.481Z,99141.92
2018-11-10T09:16:22.634Z,99141.12
2018-11-10T09:18:51.665Z,99151.67
2018-11-10T09:21:20.961Z,99147.86
2018-11-10T09:23:50.033Z,99139.07
2018-11-10T09:26:19.065Z,99141.41
2018-11-10T09:28:48.148Z,99137.20
2018-11-10T09:31:17.441Z,99135.70
2018-11-10T09:33:46.765Z,99124.72
2018-11-10T09:36:15.835Z,99121.53
2018-11-10T09:38:44.993Z,99114.84
2018-11-10T09:41:14.101Z,99114.61
2018-11-10T09:43:43.220Z,99108.90
2018-11-10T09:46:12.576Z,99097.71
2018-11-10T09:48:41.784Z,99095.48
2018-11-10T09:51:10.874Z,99101.84
2018-11-10T09:53:39.896Z,99088.88
2018-11-10T09:56:09.022Z,99095.27
2018-11-10T09:58:38.144Z,99098.73
2018-11-10T10:01:07.315Z,99099.22
2018-11-10T10:03:36.364Z,99099.77
2018-11-10T10:06:05.764Z,99102.49
2018-11-10T10:08:34.794Z,99104.95
2018-11-10T10:11:03.880Z,99106.89
2018-11-10T10:13:33.064Z,99094.00
2018-11-10T10:16:02.250Z,99093.35
2018-11-10T10:18:31.231Z,99093.77
2018-11-10T10:21:00.490Z,99094.97
2018-11-10T10:23:29.612Z,99087.93
2018-11-10T10:25:58.788Z,99079.55
2018-11-10T10:28:28.078Z,99080.20
2018-11-10T10:30:57.097Z,99081.39
2018-11-10T10:33:26.207Z,99079.05
2018-11-10T10:35:55.386Z,99074.82
2018-11-10T10:38:24.440Z,99076.08
2018-11-10T10:40:53.572Z,99077.37
2018-11-10T10:43:22.573Z,99088.16
2018-11-10T10:45:51.611Z,99088.42
2018-11-10T10:48:20.765Z,99090.33
2018-11-10T10:50:49.872Z,99095.55
2018-11-10T10:53:19.185Z,99097.31
2018-11-10T10:55:48.336Z,99100.92
2018-11-10T10:58:17.402Z,99092.37
2018-11-10T11:00:51.557Z,99099.09
2018-11-10T11:03:25.876Z,99095.95
2018-11-10T11:05:58.852Z,99101.24
2018-11-10T11:08:28.176Z,99106.13
2018-11-10T11:10:57.233Z,99094.59
2018-11-10T11:13:26.261Z,99106.45
2018-11-10T11:15:55.380Z,99093.31
2018-11-10T11:18:24.505Z,99088.58
2018-11-10T11:21:00.081Z,99089.87
2018-11-10T11:23:29.107Z,99097.16
2018-11-10T11:25:58.192Z,99097.31
2018-11-10T11:28:27.367Z,99093.71
2018-11-10T11:30:56.689Z,99092.25
2018-11-10T11:33:25.749Z,99092.17
2018-11-10T11:35:55.136Z,99088.72
2018-11-10T11:38:24.295Z,99084.23
2018-11-10T11:40:53.516Z,99081.66
2018-11-10T11:43:22.830Z,99075.56
2018-11-10T11:45:52.024Z,99075.78
2018-11-10T11:48:21.187Z,99073.05
2018-11-10T11:50:50.269Z,99081.23
2018-11-10T11:53:19.318Z,99076.03
2018-11-10T11:55:49.775Z,99074.89
2018-11-10T11:58:18.895Z,99068.19
2018-11-10T12:00:47.989Z,99085.31
2018-11-10T12:03:17.184Z,99081.00
2018-11-10T12:05:48.261Z,99078.61
2018-11-10T12:08:17.710Z,99079.97
2018-11-10T12:10:47.816Z,99070.66
2018-11-10T12:13:16.831Z,99071.69
2018-11-10T12:15:45.897Z,99075.38
2018-11-10T12:18:15.162Z,99075.78
2018-11-10T12:20:44.304Z,99077.77
2018-11-10T12:23:13.417Z,99075.20
2018-11-10T12:25:42.470Z,99076.12
2018-11-10T12:28:11.782Z,99084.55
2018-11-10T12:30:40.919Z,99082.71
2018-11-10T12:33:09.968Z,99081.20
2018-11-10T12:35:38.943Z,99076.41
2018-11-10T12:38:07.979Z,99080.90
2018-11-10T12:40:37.016Z,99085.06
2018-11-10T12:43:06.446Z,99077.70
2018-11-10T12:45:35.567Z,99078.40
2018-11-10T12:48:04.948Z,99080.16
2018-11-10T12:50:33.947Z,99083.27
2018-11-10T12:53:02.969Z,99083.66
2018-11-10T12:55:31.953Z,99088.05
2018-11-10T12:58:02.051Z,99083.70
2018-11-10T13:00:31.206Z,99086.71
2018-11-10T13:03:00.655Z,99094.15
2018-11-10T13:05:29.714Z,99090.09
2018-11-10T13:07:58.819Z,99087.20
2018-11-10T13:10:28.809Z,99086.68
2018-11-10T13:12:57.945Z,99077.83
2018-11-10T13:15:27.147Z,99080.55
2018-11-10T13:17:56.175Z,99081.92
2018-11-10T13:20:25.273Z,99075.44
2018-11-10T13:22:54.472Z,99081.23
2018-11-10T13:25:23.631Z,99078.27
2018-11-10T13:27:52.732Z,99084.28
2018-11-10T13:30:23.159Z,99088.38
2018-11-10T13:32:52.277Z,99090.85
2018-11-10T13:35:21.337Z,99087.34
2018-11-10T13:37:50.530Z,99091.19
2018-11-10T13:40:19.600Z,99088.94
2018-11-10T13:42:49.240Z,99091.25
2018-11-10T13:45:18.182Z,99090.97
2018-11-10T13:47:48.125Z,99088.05
2018-11-10T13:50:17.135Z,99083.23
2018-11-10T13:52:46.649Z,99083.93
2018-11-10T13:55:15.428Z,99084.74
2018-11-10T13:57:44.536Z,99089.64
2018-11-10T14:00:15.528Z,99088.28
2018-11-10T14:02:45.222Z,99088.97
2018-11-10T14:05:15.112Z,99079.64
2018-11-10T14:07:44.383Z,99079.47
2018-11-10T14:10:14.627Z,99074.15
2018-11-10T14:12:44.563Z,99068.69
2018-11-10T14:15:13.771Z,99079.27
2018-11-10T14:17:43.200Z,99076.54
2018-11-10T14:20:14.515Z,99076.77
2018-11-10T14:22:44.281Z,99076.29
2018-11-10T14:25:14.586Z,99078.80
2018-11-10T14:27:44.174Z,99071.50
2018-11-10T14:30:14.711Z,99077.86
2018-11-10T14:32:44.127Z,99078.19
2018-11-10T14:35:13.599Z,99076.22
2018-11-10T14:37:42.676Z,99078.55
2018-11-10T14:40:13.236Z,99072.73
2018-11-10T14:42:43.055Z,99076.88
2018-11-10T14:45:13.804Z,99083.02
2018-11-10T14:47:43.757Z,99081.42
2018-11-10T14:50:13.903Z,99088.33
2018-11-10T14:52:43.817Z,99084.91
2018-11-10T14:55:13.512Z,99087.37
2018-11-10T14:57:43.053Z,99089.08
2018-11-10T15:00:19.514Z,99089.97
2018-11-10T15:02:48.624Z,99087.34
2018-11-10T15:05:17.623Z,99093.91
2018-11-10T15:07:47.139Z,99088.13
2018-11-10T15:10:17.237Z,99085.31
2018-11-10T15:12:46.607Z,99079.20
2018-11-10T15:15:16.626Z,99089.22
2018-11-10T15:17:46.383Z,99087.44
2018-11-10T15:20:17.579Z,99079.25
2018-11-10T15:22:47.529Z,99081.42
2018-11-10T15:25:18.855Z,99086.30
2018-11-10T15:27:47.928Z,99079.47
2018-11-10T15:30:18.300Z,99072.34
2018-11-10T15:32:48.533Z,99075.25
2018-11-10T15:35:19.064Z,99078.20
2018-11-10T15:37:49.478Z,99078.20
2018-11-10T15:40:19.225Z,99077.47
2018-11-10T15:42:48.434Z,99075.38
2018-11-10T15:45:19.221Z,99076.72
2018-11-10T15:47:48.504Z,99085.09
2018-11-10T15:50:18.501Z,99086.87
2018-11-10T15:52:47.570Z,99083.53
2018-11-10T15:55:16.592Z,99085.30
2018-11-10T15:57:45.596Z,99093.12
2018-11-10T16:00:16.072Z,99090.80
2018-11-10T16:02:45.243Z,99089.84
2018-11-10T16:05:14.798Z,99093.57
2018-11-10T16:07:43.906Z,99093.17
2018-11-10T16:10:13.314Z,99097.44
2018-11-10T16:12:42.468Z,99099.14
2018-11-10T16:15:13.662Z,99099.77
2018-11-10T16:17:42.919Z,99093.61
2018-11-10T16:20:14.769Z,99096.41
2018-11-10T16:22:45.207Z,99095.97
2018-11-10T16:25:14.283Z,99099.32
2018-11-10T16:27:43.460Z,99102.45
2018-11-10T16:30:14.080Z,99108.55
2018-11-10T16:32:43.212Z,99110.47
2018-11-10T16:35:12.294Z,99114.89
2018-11-10T16:37:42.611Z,99108.95
2018-11-10T16:40:14.409Z,99106.48
2018-11-10T16:42:44.672Z,99114.73
2018-11-10T16:45:14.558Z,99113.70
2018-11-10T16:47:43.624Z,99114.58
2018-11-10T16:50:13.362Z,99123.16
2018-11-10T16:52:43.546Z,99121.34
2018-11-10T16:55:12.667Z,99129.27
2018-11-10T16:57:41.643Z,99125.73
2018-11-10T17:00:13.183Z,99123.88
2018-11-10T17:02:43.144Z,99119.02
2018-11-10T17:05:12.165Z,99122.63
2018-11-10T17:07:41.189Z,99115.55
2018-11-10T17:10:13.165Z,99116.47
2018-11-10T17:12:42.694Z,99118.70
2018-11-10T17:15:11.845Z,99122.31
2018-11-10T17:17:40.925Z,99127.02
2018-11-10T17:20:12.585Z,99127.77
2018-11-10T17:22:41.765Z,99135.75
2018-11-10T17:25:11.618Z,99135.14
2018-11-10T17:27:41.217Z,99142.66
2018-11-10T17:30:13.346Z,99148.02
2018-11-10T17:32:42.772Z,99150.38
2018-11-10T17:35:12.595Z,99153.49
2018-11-10T17:37:41.802Z,99160.95
2018-11-10T17:40:11.997Z,99156.12
2018-11-10T17:42:41.007Z,99163.83
2018-11-10T17:45:15.066Z,99161.39
2018-11-10T17:47:44.459Z,99165.48
2018-11-10T17:50:15.682Z,99159.81
2018-11-10T17:52:44.776Z,99158.12
2018-11-10T17:55:14.862Z,99159.25
2018-11-10T17:57:44.441Z,99159.48
2018-11-10T18:00:13.980Z,99163.34
2018-11-10T18:02:43.070Z,99159.25
2018-11-10T18:05:13.945Z,99169.56
2018-11-10T18:07:47.005Z,99171.99
2018-11-10T18:10:18.713Z,99176.08
2018-11-10T18:12:49.030Z,99172.45
2018-11-10T18:15:20.336Z,99176.79
2018-11-10T18:17:49.374Z,99172.64
2018-11-10T18:20:19.812Z,99179.91
2018-11-10T18:22:49.867Z,99174.95
2018-11-10T18:25:19.093Z,99183.86
2018-11-10T18:27:48.232Z,99182.66
2018-11-10T18:30:19.190Z,99184.22
2018-11-10T18:32:48.344Z,99185.00
2018-11-10T18:35:17.429Z,99193.91
2018-11-10T18:37:47.042Z,99180.05
2018-11-10T18:40:16.223Z,99187.11
2018-11-10T18:42:45.258Z,99191.42
2018-11-10T18:45:14.554Z,99191.97
2018-11-10T18:47:43.721Z,99193.33
2018-11-10T18:50:15.256Z,99193.59
2018-11-10T18:52:44.714Z,99192.78
2018-11-10T18:55:14.936Z,99196.38
2018-11-10T18:57:44.676Z,99186.36
2018-11-10T19:00:17.113Z,99188.53
2018-11-10T19:02:46.731Z,99185.00
2018-11-10T19:05:16.972Z,99189.41
2018-11-10T19:07:47.053Z,99189.98
2018-11-10T19:10:17.435Z,99186.75
2018-11-10T19:12:46.763Z,99182.18
2018-11-10T19:15:19.360Z,99195.79
2018-11-10T19:17:48.475Z,99190.89
2018-11-10T19:20:18.739Z,99195.30
2018-11-10T19:22:48.041Z,99197.77
2018-11-10T19:25:17.211Z,99196.41
2018-11-10T19:27:46.513Z,99196.66
2018-11-10T19:30:17.865Z,99196.11
2018-11-10T19:32:47.882Z,99193.45
2018-11-10T19:35:17.866Z,99188.39
2018-11-10T19:37:47.582Z,99195.45
2018-11-10T19:40:16.726Z,99191.44
2018-11-10T19:42:46.516Z,99188.78
2018-11-10T19:45:16.897Z,99191.33
2018-11-10T19:47:46.635Z,99205.03
2018-11-10T19:50:16.196Z,99200.78
2018-11-10T19:52:46.500Z,99200.13
2018-11-10T19:55:16.820Z,99203.55
2018-11-10T19:57:46.002Z,99209.69
2018-11-10T20:00:21.499Z,99214.79
2018-11-10T20:02:50.772Z,99215.80
2018-11-10T20:05:19.918Z,99212.09
2018-11-10T20:07:49.246Z,99216.33
2018-11-10T20:10:18.305Z,99216.70
2018-11-10T20:12:47.466Z,99215.16
2018-11-10T20:15:17.647Z,99222.34
2018-11-10T20:17:46.987Z,99223.28
2018-11-10T20:20:17.386Z,99219.03
2018-11-10T20:22:47.357Z,99220.70
2018-11-10T20:25:17.692Z,99223.71
2018-11-10T20:27:46.733Z,99226.02
2018-11-10T20:30:18.083Z,99228.56
2018-11-10T20:32:47.373Z,99234.31
2018-11-10T20:35:16.370Z,99237.03
2018-11-10T20:37:47.206Z,99236.77
2018-11-10T20:40:17.678Z,99232.95
2018-11-10T20:42:46.802Z,99238.13
2018-11-10T20:45:18.891Z,99234.86
2018-11-10T20:47:47.934Z,99231.33
2018-11-10T20:50:17.493Z,99235.72
2018-11-10T20:52:46.864Z,99232.19
2018-11-10T20:55:16.165Z,99224.98
2018-11-10T20:57:45.802Z,99237.27
2018-11-10T21:00:18.945Z,99239.44
2018-11-10T21:02:48.276Z,99226.16
2018-11-10T21:05:17.640Z,99226.22
2018-11-10T21:07:47.390Z,99239.88
2018-11-10T21:10:18.070Z,99235.55
2018-11-10T21:12:47.830Z,99234.81
2018-11-10T21:15:17.672Z,99238.08
2018-11-10T21:17:47.166Z,99233.82
2018-11-10T21:20:16.294Z,99230.61
2018-11-10T21:22:45.541Z,99227.89
2018-11-10T21:25:16.163Z,99230.11
2018-11-10T21:27:45.664Z,99234.81
2018-11-10T21:30:16.344Z,99232.72
2018-11-10T21:32:45.728Z,99233.31
2018-11-10T21:35:15.024Z,99230.13
2018-11-10T21:37:44.051Z,99231.23
2018-11-10T21:40:15.439Z,99244.27
2018-11-10T21:42:44.748Z,99236.11
2018-11-10T21:45:14.539Z,99240.73
2018-11-10T21:47:43.696Z,99239.64
2018-11-10T21:50:14.176Z,99238.52
2018-11-10T21:52:43.980Z,99231.49
2018-11-10T21:55:14.623Z,99234.44
2018-11-10T21:57:44.278Z,99232.84
2018-11-10T22:00:15.253Z,99230.68
2018-11-10T22:02:44.935Z,99233.70
2018-11-10T22:05:13.910Z,99231.27
2018-11-10T22:07:42.895Z,99236.52
2018-11-10T22:10:13.605Z,99229.55
2018-11-10T22:12:43.110Z,99227.22
2018-11-10T22:15:14.731Z,99227.50
2018-11-10T22:17:44.523Z,99218.62
2018-11-10T22:20:15.877Z,99230.08
2018-11-10T22:22:44.871Z,99225.19
2018-11-10T22:25:14.313Z,99231.48
2018-11-10T22:27:44.584Z,99233.65
2018-11-10T22:30:15.720Z,99233.65
2018-11-10T22:32:45.289Z,99231.75
2018-11-10T22:35:14.537Z,99242.53
2018-11-10T22:37:43.590Z,99239.03
2018-11-10T22:40:15.834Z,99240.11
2018-11-10T22:42:45.215Z,99238.75
2018-11-10T22:45:16.929Z,99235.73
2018-11-10T22:47:46.043Z,99231.39
2018-11-10T22:50:16.634Z,99232.79
2018-11-10T22:52:45.795Z,99229.81
2018-11-10T22:55:14.844Z,99233.38
2018-11-10T22:57:43.852Z,99226.67
2018-11-10T23:00:20.049Z,99229.43
2018-11-10T23:02:51.211Z,99220.05
2018-11-10T23:05:20.896Z,99219.86
2018-11-10T23:07:49.893Z,99226.15
2018-11-10T23:10:19.198Z,99212.39
2018-11-10T23:12:49.464Z,99207.50
2018-11-10T23:15:18.695Z,99207.31
2018-11-10T23:18:05.714Z,99205.22
2018-11-10T23:20:53.314Z,99203.36
2018-11-10T23:23:40.701Z,99203.16
2018-11-10T23:26:26.803Z,99196.93
2018-11-10T23:29:13.259Z,99192.08
2018-11-10T23:31:42.955Z,99187.42
2018-11-10T23:34:32.151Z,99186.65
2018-11-10T23:37:18.104Z,99184.22
2018-11-10T23:40:06.587Z,99191.58
2018-11-10T23:42:55.470Z,99198.67
2018-11-10T23:45:42.141Z,99200.27
2018-11-10T23:48:29.782Z,99198.91
2018-11-10T23:50:59.418Z,99192.86
2018-11-10T23:53:44.918Z,99201.00
2018-11-10T23:56:26.804Z,99200.50
2018-11-10T23:59:11.271Z,99195.38
